Haleyville, Alabama
Current Conditions -  °F | °C
As of 9:56 AM on Monday 24 Nov 2014 (Local Time) from K1M4 Reporting Station
Scattered Clouds Scattered Clouds  
Wind Chill: 57°   Ceiling: Unl
Heat Index: 57°   Visibility: 10mi
Dew Point: 46°   Wind: 14mph
Humidity: 67%   Direction: 270°W
Pressure: 29.86"   Gusts: 20mph
Location:  34.23°N, 87.62°W
Report Text: K1M4 241556Z AUTO 27012G17KT 240V300 10SM FEW027 SCT033 14/08 A2986 RMK AO2 T01380077 SLP124
Loading
Personal Weather Stations






























Interactive Weather Map New forecast layout! Learn more

10-Day Weather Forecast

Advertisements
Track Severe Weather on mobile